• Join FlightAware (Why Join?)
  • Login
  • US Flag 
02:32AM EDT


 

Airport Tracker/Info


-or-


 

Live Flight TrackerFlight Track Log ✈ EJA727 ✈ 29-Jun-2013 ✈ KBPT - MWCR / GCM

Flight Track Log - Related Links

Times and Time Zones

All times are in EDT time to prevent confusion due to time zone crossing. See the EJA727 flight status page for this flight to view local times or setup timezone preferences in your user account.

Time Position Orientation Groundspeed Altitude Reporting Facility
EDT Latitude Longitude Course Direction KTS MPH feet Rate Location/Type
01:06PM 29.9572 -94.0364 258° West 163 188 700  Level Houston Center
01:07PM 29.9492 -94.0808 258° West 217 250 2,300 2,280 Climbing Houston Center
01:07PM 29.9364 -94.1164 247° West 243 280 3,800 3,120 Climbing Houston Center
01:08PM 29.8819 -94.1683 220° Southwest 281 323 7,500 3,540 Climbing Houston Center
01:09PM 29.7786 -94.1742 183° South 308 354 11,200 2,820 Climbing Houston Center
01:10PM 29.6731 -94.1808 183° South 378 435 13,400 2,220 Climbing Houston Center
01:11PM 29.5672 -94.1508 166° South 399 459 15,800 2,460 Climbing Houston Center
01:12PM 29.4589 -94.1083 161° South 410 472 18,600 2,700 Climbing Houston Center
01:13PM 29.3497 -94.0497 155° Southeast 418 481 21,400 2,460 Climbing Houston Center
01:14PM 29.2431 -93.9942 156° South 418 481 23,800 2,040 Climbing Houston Center
01:15PM 29.1483 -93.9164 144° Southeast 429 494 25,700 1,800 Climbing Houston Center
01:16PM 29.0450 -93.8117 138° Southeast 431 496 27,600 1,620 Climbing Houston Center
01:18PM 28.9533 -93.7161 138° Southeast 444 511 29,100 1,560 Climbing Houston Center
01:19PM 28.8547 -93.6167 139° Southeast 449 517 30,900 1,560 Climbing Houston Center
01:20PM 28.7656 -93.5264 138° Southeast 453 521 32,400 1,500 Climbing Houston Center
01:21PM 28.6728 -93.4311 138° Southeast 451 519 34,000 1,200 Climbing Houston Center
01:22PM 28.5753 -93.3342 139° Southeast 442 509 35,000 480 Climbing Houston Center
01:23PM 28.4681 -93.2267 139° Southeast 450 518 35,000  Level Houston Center
01:24PM 28.3722 -93.1314 139° Southeast 456 525 35,000  Level Houston Center
01:25PM 28.2769 -93.0347 138° Southeast 459 528 35,000  Level Houston Center
01:26PM 28.1819 -92.9417 139° Southeast 455 524 35,000  Level Houston Center
01:27PM 28.0881 -92.8472 138° Southeast 452 520 35,000  Level Houston Center
01:28PM 27.9931 -92.7511 138° Southeast 457 526 35,000  Level Houston Center
01:29PM 27.8800 -92.6364 138° Southeast 456 525 35,000  Level Houston Center
01:30PM 27.7819 -92.5433 140° Southeast 458 527 35,000  Level Houston Center
01:31PM 27.6858 -92.4478 139° Southeast 461 531 35,000  Level Houston Center
01:32PM 27.5881 -92.3525 139° Southeast 463 533 35,000  Level Houston Center
01:33PM 27.4903 -92.2581 139° Southeast 464 534 35,000  Level Houston Center
01:34PM 27.3936 -92.1647 139° Southeast 461 531 35,000  Level Houston Center
01:35PM 27.2778 -92.0506 139° Southeast 460 529 35,000  Level Houston Center
01:36PM 27.1806 -91.9569 139° Southeast 461 531 35,000  Level Houston Center
01:37PM 27.0781 -91.8708 143° Southeast 461 531 35,000  Level Houston Center
01:40PM 26.8375 -91.6757 144° Southeast  Level FlightAware Approximate
01:47PM 26.1383 -91.1165 145° Southeast  Level FlightAware Approximate
01:48PM 26.0380 -91.0377 145° Southeast  Level FlightAware Approximate
01:49PM 25.9375 -90.9590 145° Southeast  Level FlightAware Approximate
01:50PM 25.8371 -90.8804 145° Southeast  Level FlightAware Approximate
01:51PM 25.7366 -90.8020 145° Southeast  Level FlightAware Approximate
01:52PM 25.6360 -90.7236 145° Southeast  Level FlightAware Approximate
01:53PM 25.5355 -90.6455 145° Southeast  Level FlightAware Approximate
01:54PM 25.4348 -90.5674 145° Southeast  Level FlightAware Approximate
01:55PM 25.3342 -90.4895 145° Southeast  Level FlightAware Approximate
01:56PM 25.2334 -90.4117 145° Southeast  Level FlightAware Approximate
01:57PM 25.1327 -90.3341 145° Southeast  Level FlightAware Approximate
01:58PM 25.0319 -90.2566 145° Southeast  Level FlightAware Approximate
01:59PM 24.9311 -90.1792 145° Southeast  Level FlightAware Approximate
02:00PM 24.8302 -90.1019 145° Southeast  Level FlightAware Approximate
02:01PM 24.7293 -90.0247 145° Southeast  Level FlightAware Approximate
02:02PM 24.6283 -89.9477 145° Southeast  Level FlightAware Approximate
02:03PM 24.5274 -89.8708 145° Southeast  Level FlightAware Approximate
02:04PM 24.4518 -89.7684 118° Southeast  Level FlightAware Approximate
02:05PM 24.3938 -89.6494 118° Southeast  Level FlightAware Approximate
02:06PM 24.3358 -89.5306 118° Southeast  Level FlightAware Approximate
02:07PM 24.2777 -89.4118 118° Southeast  Level FlightAware Approximate
02:08PM 24.2194 -89.2932 118° Southeast  Level FlightAware Approximate
02:09PM 24.1611 -89.1747 118° Southeast  Level FlightAware Approximate
02:10PM 24.1027 -89.0563 118° Southeast  Level FlightAware Approximate
02:11PM 24.0443 -88.9379 118° Southeast  Level FlightAware Approximate
02:12PM 23.9858 -88.8196 118° Southeast  Level FlightAware Approximate
02:13PM 23.9273 -88.7015 118° Southeast  Level FlightAware Approximate
02:14PM 23.8687 -88.5834 118° Southeast  Level FlightAware Approximate
02:15PM 23.8099 -88.4655 119° Southeast  Level FlightAware Approximate
02:16PM 23.7511 -88.3476 119° Southeast  Level FlightAware Approximate
02:17PM 23.6922 -88.2299 119° Southeast  Level FlightAware Approximate
02:18PM 23.6332 -88.1122 119° Southeast  Level FlightAware Approximate
02:19PM 23.5742 -87.9947 119° Southeast  Level FlightAware Approximate
02:20PM 23.5150 -87.8773 119° Southeast  Level FlightAware Approximate
02:21PM 23.4557 -87.7599 119° Southeast  Level FlightAware Approximate
02:22PM 23.3964 -87.6427 119° Southeast  Level FlightAware Approximate
02:23PM 23.3370 -87.5256 119° Southeast  Level FlightAware Approximate
02:24PM 23.2775 -87.4086 119° Southeast  Level FlightAware Approximate
02:25PM 23.2179 -87.2917 119° Southeast  Level FlightAware Approximate
02:26PM 23.1582 -87.1749 119° Southeast  Level FlightAware Approximate
02:27PM 23.0984 -87.0582 119° Southeast  Level FlightAware Approximate
02:28PM 23.0385 -86.9416 119° Southeast  Level FlightAware Approximate
02:29PM 22.9786 -86.8251 119° Southeast  Level FlightAware Approximate
02:30PM 22.9186 -86.7088 119° Southeast  Level FlightAware Approximate
02:31PM 22.8584 -86.5925 119° Southeast  Level FlightAware Approximate
02:32PM 22.7983 -86.4763 119° Southeast  Level FlightAware Approximate
02:33PM 22.7380 -86.3602 119° Southeast  Level FlightAware Approximate
02:34PM 22.6776 -86.2443 119° Southeast  Level FlightAware Approximate
02:35PM 22.6171 -86.1284 119° Southeast  Level FlightAware Approximate
02:36PM 22.5566 -86.0126 120° Southeast  Level FlightAware Approximate
02:37PM 22.4967 -85.8966 119° Southeast  Level FlightAware Approximate
02:38PM 22.4367 -85.7805 119° Southeast  Level FlightAware Approximate
02:39PM 22.3767 -85.6646 119° Southeast  Level FlightAware Approximate
02:40PM 22.3166 -85.5488 119° Southeast  Level FlightAware Approximate
02:41PM 22.2564 -85.4330 119° Southeast  Level FlightAware Approximate
02:42PM 22.1962 -85.3174 119° Southeast  Level FlightAware Approximate
02:43PM 22.1358 -85.2019 119° Southeast  Level FlightAware Approximate
02:44PM 22.0754 -85.0864 119° Southeast  Level FlightAware Approximate
02:45PM 22.0149 -84.9711 119° Southeast  Level FlightAware Approximate
02:46PM 21.9543 -84.8559 120° Southeast  Level FlightAware Approximate
02:47PM 21.8936 -84.7408 120° Southeast  Level FlightAware Approximate
02:48PM 21.8329 -84.6257 120° Southeast  Level FlightAware Approximate
02:49PM 21.7720 -84.5108 120° Southeast  Level FlightAware Approximate
02:50PM 21.7111 -84.3959 120° Southeast  Level FlightAware Approximate
02:51PM 21.6501 -84.2812 120° Southeast  Level FlightAware Approximate
02:52PM 21.5891 -84.1665 120° Southeast  Level FlightAware Approximate
02:53PM 21.5279 -84.0520 120° Southeast  Level FlightAware Approximate
02:54PM 21.4667 -83.9376 120° Southeast  Level FlightAware Approximate
02:55PM 21.4054 -83.8232 120° Southeast  Level FlightAware Approximate
02:56PM 21.3440 -83.7089 120° Southeast  Level FlightAware Approximate
02:57PM 21.2825 -83.5948 120° Southeast  Level FlightAware Approximate
02:58PM 21.2210 -83.4807 120° Southeast  Level FlightAware Approximate
02:59PM 21.1594 -83.3667 120° Southeast  Level FlightAware Approximate
03:00PM 21.0977 -83.2529 120° Southeast  Level FlightAware Approximate
03:01PM 21.0359 -83.1391 120° Southeast  Level FlightAware Approximate
03:02PM 20.9741 -83.0254 120° Southeast  Level FlightAware Approximate
03:03PM 20.9122 -82.9118 120° Southeast  Level FlightAware Approximate
03:04PM 20.8502 -82.7983 120° Southeast  Level FlightAware Approximate
03:05PM 20.7881 -82.6849 120° Southeast  Level FlightAware Approximate
03:06PM 20.7260 -82.5715 120° Southeast  Level FlightAware Approximate
03:07PM 20.6637 -82.4583 120° Southeast  Level FlightAware Approximate
03:08PM 20.5945 -82.3500 125° Southeast  Level FlightAware Approximate
03:09PM 20.5345 -82.2357 118° Southeast  Level FlightAware Approximate
03:10PM 20.4713 -82.1236 125° Southeast  Level FlightAware Approximate
03:11PM 20.4060 -82.0126 122° Southeast  Level FlightAware Approximate
03:12PM 20.3414 -81.9011 121° Southeast  Level FlightAware Approximate
03:13PM 20.2786 -81.7885 121° Southeast  Level FlightAware Approximate
03:14PM 20.2159 -81.6759 121° Southeast  Level FlightAware Approximate
03:15PM 20.1530 -81.5635 121° Southeast  Level FlightAware Approximate
03:16PM 20.0901 -81.4511 121° Southeast  Level FlightAware Approximate
03:17PM 20.0276 -81.3386 118° Southeast  Level FlightAware Approximate
03:18PM 19.9522 -81.2746 189° South  Level FlightAware Approximate
03:19PM 19.8302 -81.2887 184° South  Level FlightAware Approximate
03:20PM 19.7077 -81.2981 184° South  Level FlightAware Approximate
03:21PM 19.5853 -81.3098 185° South  Level FlightAware Approximate
03:22PM 19.4642 -81.3298 193° South  Level FlightAware Approximate
03:23PM 19.3419 -81.3350 191° South  Level FlightAware Approximate
03:24PM 19.2928 -81.3577 191° South  Level Estimated
03:25PM 19.2928 -81.3577 191° South  Level Estimated
03:26PM 19.2928 -81.3577 191° South  Level Estimated
03:27PM 19.2928 -81.3577 191° South  Level Estimated
03:28PM 19.2928 -81.3577 191° South  Level Estimated
03:29PM 19.2928 -81.3577 191° South  Level Estimated
03:30PM 19.2928 -81.3577 191° South  Level Estimated
03:31PM 19.2928 -81.3577 191° South  Level Estimated
03:32PM 19.2928 -81.3577 191° South  Level Estimated
03:33PM 19.2928 -81.3577 191° South  Level Estimated
03:34PM 19.2928 -81.3577 191° South  Level Estimated
03:35PM 19.2928 -81.3577 191° South  Level Estimated
03:36PM 19.2928 -81.3577 191° South  Level Estimated
03:37PM 19.2928 -81.3577 191° South  Level Estimated